sensor_id;sensor_type;location;lat;lon;timestamp;pressure;altitude;pressure_sealevel;temperature;humidity
59859;BME280;45734;53.648;9.566;2024-03-22T00:04:33;52596.50;;;-145.06;100.00
59859;BME280;45734;53.648;9.566;2024-03-22T00:09:34;52637.00;;;-145.06;100.00
59859;BME280;45734;53.648;9.566;2024-03-22T00:14:34;52594.47;;;-145.06;100.00
59859;BME280;45734;53.648;9.566;2024-03-22T00:19:34;52616.75;;;-145.06;100.00
59859;BME280;45734;53.648;9.566;2024-03-22T00:24:35;52604.59;;;-145.06;100.00
59859;BME280;45734;53.648;9.566;2024-03-22T00:29:35;52592.44;;;-145.06;100.00
59859;BME280;45734;53.648;9.566;2024-03-22T00:34:35;52572.19;;;-145.06;100.00
59859;BME280;45734;53.648;9.566;2024-03-22T00:39:36;52590.44;;;-145.06;100.00
59859;BME280;45734;53.648;9.566;2024-03-22T00:44:36;52588.41;;;-145.06;100.00
59859;BME280;45734;53.648;9.566;2024-03-22T00:49:37;52580.31;;;-145.06;100.00
59859;BME280;45734;53.648;9.566;2024-03-22T00:54:37;52600.53;;;-145.06;100.00
59859;BME280;45734;53.648;9.566;2024-03-22T00:59:39;52604.59;;;-145.06;100.00
59859;BME280;45734;53.648;9.566;2024-03-22T01:04:39;52568.16;;;-145.06;100.00
59859;BME280;45734;53.648;9.566;2024-03-22T01:09:40;52582.31;;;-145.06;100.00
59859;BME280;45734;53.648;9.566;2024-03-22T01:14:40;52600.53;;;-145.06;100.00
59859;BME280;45734;53.648;9.566;2024-03-22T01:19:40;52578.28;;;-145.06;100.00
59859;BME280;45734;53.648;9.566;2024-03-22T01:24:41;52580.31;;;-145.06;100.00
59859;BME280;45734;53.648;9.566;2024-03-22T01:29:41;52576.25;;;-145.06;100.00
59859;BME280;45734;53.648;9.566;2024-03-22T01:34:41;52556.00;;;-145.06;100.00
59859;BME280;45734;53.648;9.566;2024-03-22T01:39:41;52578.28;;;-145.06;100.00
59859;BME280;45734;53.648;9.566;2024-03-22T01:44:42;52560.06;;;-145.06;100.00
59859;BME280;45734;53.648;9.566;2024-03-22T01:49:43;52566.13;;;-145.06;100.00
59859;BME280;45734;53.648;9.566;2024-03-22T01:54:43;52541.84;;;-145.06;100.00
59859;BME280;45734;53.648;9.566;2024-03-22T01:59:44;52551.97;;;-145.06;100.00
59859;BME280;45734;53.648;9.566;2024-03-22T02:04:50;52553.97;;;-145.06;100.00
59859;BME280;45734;53.648;9.566;2024-03-22T02:09:50;52543.84;;;-145.06;100.00
59859;BME280;45734;53.648;9.566;2024-03-22T02:14:51;52533.75;;;-145.06;100.00
59859;BME280;45734;53.648;9.566;2024-03-22T02:19:51;52549.94;;;-145.06;100.00
59859;BME280;45734;53.648;9.566;2024-03-22T02:24:51;52523.63;;;-145.06;100.00
59859;BME280;45734;53.648;9.566;2024-03-22T02:29:52;52539.81;;;-145.06;100.00
59859;BME280;45734;53.648;9.566;2024-03-22T02:34:52;52511.47;;;-145.06;100.00
59859;BME280;45734;53.648;9.566;2024-03-22T02:39:52;52533.75;;;-145.06;100.00
59859;BME280;45734;53.648;9.566;2024-03-22T02:44:52;52487.19;;;-145.06;100.00
59859;BME280;45734;53.648;9.566;2024-03-22T02:49:53;52519.56;;;-145.06;100.00
59859;BME280;45734;53.648;9.566;2024-03-22T02:54:53;52515.53;;;-145.06;100.00
59859;BME280;45734;53.648;9.566;2024-03-22T02:59:54;52515.53;;;-145.06;100.00
59859;BME280;45734;53.648;9.566;2024-03-22T03:04:54;52519.56;;;-145.06;100.00
59859;BME280;45734;53.648;9.566;2024-03-22T03:09:54;52487.19;;;-145.06;100.00
59859;BME280;45734;53.648;9.566;2024-03-22T03:14:54;52497.28;;;-145.06;100.00
59859;BME280;45734;53.648;9.566;2024-03-22T03:19:55;52497.28;;;-145.06;100.00
59859;BME280;45734;53.648;9.566;2024-03-22T03:24:55;52479.06;;;-145.06;100.00
59859;BME280;45734;53.648;9.566;2024-03-22T03:29:55;52479.06;;;-145.06;100.00
59859;BME280;45734;53.648;9.566;2024-03-22T03:34:56;52487.19;;;-145.06;100.00
59859;BME280;45734;53.648;9.566;2024-03-22T03:39:56;52448.72;;;-145.06;100.00
59859;BME280;45734;53.648;9.566;2024-03-22T03:44:56;52481.09;;;-145.06;100.00
59859;BME280;45734;53.648;9.566;2024-03-22T03:49:56;52466.94;;;-145.06;100.00
59859;BME280;45734;53.648;9.566;2024-03-22T03:54:57;52450.75;;;-145.06;100.00
59859;BME280;45734;53.648;9.566;2024-03-22T03:59:57;52436.56;;;-145.06;100.00
59859;BME280;45734;53.648;9.566;2024-03-22T04:04:57;52456.81;;;-145.06;100.00
59859;BME280;45734;53.648;9.566;2024-03-22T04:09:57;52454.78;;;-145.06;100.00
59859;BME280;45734;53.648;9.566;2024-03-22T04:15:00;52448.72;;;-145.06;100.00
59859;BME280;45734;53.648;9.566;2024-03-22T04:20:01;52420.38;;;-145.06;100.00
59859;BME280;45734;53.648;9.566;2024-03-22T04:25:03;52410.25;;;-145.06;100.00
59859;BME280;45734;53.648;9.566;2024-03-22T04:30:03;52446.69;;;-145.06;100.00
59859;BME280;45734;53.648;9.566;2024-03-22T04:35:04;52432.53;;;-145.06;100.00
59859;BME280;45734;53.648;9.566;2024-03-22T04:40:05;52426.44;;;-145.06;100.00
59859;BME280;45734;53.648;9.566;2024-03-22T04:45:05;52430.50;;;-145.06;100.00
59859;BME280;45734;53.648;9.566;2024-03-22T04:50:06;52424.41;;;-145.06;100.00
59859;BME280;45734;53.648;9.566;2024-03-22T04:55:07;52422.41;;;-145.06;100.00
59859;BME280;45734;53.648;9.566;2024-03-22T05:00:08;52410.25;;;-145.06;100.00
59859;BME280;45734;53.648;9.566;2024-03-22T05:05:09;52402.16;;;-145.06;100.00
59859;BME280;45734;53.648;9.566;2024-03-22T05:10:10;52396.06;;;-145.06;100.00
59859;BME280;45734;53.648;9.566;2024-03-22T05:15:10;52383.94;;;-145.06;100.00
59859;BME280;45734;53.648;9.566;2024-03-22T05:20:10;52377.84;;;-145.06;100.00
59859;BME280;45734;53.648;9.566;2024-03-22T05:25:11;52357.63;;;-145.06;100.00
59859;BME280;45734;53.648;9.566;2024-03-22T05:30:13;52353.56;;;-145.06;100.00
59859;BME280;45734;53.648;9.566;2024-03-22T05:35:13;52331.28;;;-145.06;100.00
59859;BME280;45734;53.648;9.566;2024-03-22T05:40:15;52353.56;;;-145.06;100.00
59859;BME280;45734;53.648;9.566;2024-03-22T05:45:16;52377.84;;;-145.06;100.00
59859;BME280;45734;53.648;9.566;2024-03-22T05:50:16;52329.28;;;-145.06;100.00
59859;BME280;45734;53.648;9.566;2024-03-22T05:55:16;52323.19;;;-145.06;100.00
59859;BME280;45734;53.648;9.566;2024-03-22T06:00:17;52317.13;;;-145.06;100.00
59859;BME280;45734;53.648;9.566;2024-03-22T06:05:18;52272.59;;;-145.06;100.00
59859;BME280;45734;53.648;9.566;2024-03-22T06:10:18;52278.66;;;-145.06;100.00
59859;BME280;45734;53.648;9.566;2024-03-22T06:15:18;52270.56;;;-145.06;100.00
59859;BME280;45734;53.648;9.566;2024-03-22T06:20:19;52280.69;;;-145.06;100.00
59859;BME280;45734;53.648;9.566;2024-03-22T06:25:19;52236.16;;;-145.06;100.00
59859;BME280;45734;53.648;9.566;2024-03-22T06:30:19;52242.22;;;-145.06;100.00
59859;BME280;45734;53.648;9.566;2024-03-22T06:35:20;52256.41;;;-145.06;100.00
59859;BME280;45734;53.648;9.566;2024-03-22T06:40:21;52215.91;;;-145.06;100.00
59859;BME280;45734;53.648;9.566;2024-03-22T06:45:21;52187.56;;;-145.06;100.00
59859;BME280;45734;53.648;9.566;2024-03-22T06:50:21;52217.94;;;-145.06;100.00
59859;BME280;45734;53.648;9.566;2024-03-22T06:55:24;52195.66;;;-145.06;100.00
59859;BME280;45734;53.648;9.566;2024-03-22T07:00:24;52217.94;;;-145.06;100.00
59859;BME280;45734;53.648;9.566;2024-03-22T07:05:24;52171.38;;;-145.06;100.00
59859;BME280;45734;53.648;9.566;2024-03-22T07:10:25;52187.56;;;-145.06;100.00
59859;BME280;45734;53.648;9.566;2024-03-22T07:15:27;52169.34;;;-145.06;100.00
59859;BME280;45734;53.648;9.566;2024-03-22T07:20:30;52161.25;;;-145.06;100.00
59859;BME280;45734;53.648;9.566;2024-03-22T07:25:31;52177.44;;;-145.06;100.00
59859;BME280;45734;53.648;9.566;2024-03-22T07:30:31;52147.09;;;-145.06;100.00
59859;BME280;45734;53.648;9.566;2024-03-22T07:35:31;52143.03;;;-145.06;100.00
59859;BME280;45734;53.648;9.566;2024-03-22T07:40:32;52157.22;;;-145.06;100.00
59859;BME280;45734;53.648;9.566;2024-03-22T07:45:34;52141.00;;;-145.06;100.00
59859;BME280;45734;53.648;9.566;2024-03-22T07:50:35;52163.28;;;-145.06;100.00
59859;BME280;45734;53.648;9.566;2024-03-22T07:55:36;52165.31;;;-145.06;100.00
59859;BME280;45734;53.648;9.566;2024-03-22T08:00:36;52145.06;;;-145.06;100.00
59859;BME280;45734;53.648;9.566;2024-03-22T08:05:37;52128.88;;;-145.06;100.00
59859;BME280;45734;53.648;9.566;2024-03-22T08:10:37;52106.59;;;-145.06;100.00
59859;BME280;45734;53.648;9.566;2024-03-22T08:15:37;52088.38;;;-145.06;100.00
59859;BME280;45734;53.648;9.566;2024-03-22T08:20:38;52088.38;;;-145.06;100.00
59859;BME280;45734;53.648;9.566;2024-03-22T08:25:39;52074.22;;;-145.06;100.00
59859;BME280;45734;53.648;9.566;2024-03-22T08:30:39;52062.06;;;-145.06;100.00
59859;BME280;45734;53.648;9.566;2024-03-22T08:35:40;52072.19;;;-145.06;100.00
59859;BME280;45734;53.648;9.566;2024-03-22T08:40:40;52072.19;;;-145.06;100.00
59859;BME280;45734;53.648;9.566;2024-03-22T08:45:40;52049.91;;;-145.06;100.00
59859;BME280;45734;53.648;9.566;2024-03-22T08:50:44;52027.66;;;-145.06;100.00
59859;BME280;45734;53.648;9.566;2024-03-22T08:55:48;52009.44;;;-145.06;100.00
59859;BME280;45734;53.648;9.566;2024-03-22T09:00:49;52015.50;;;-145.06;100.00
59859;BME280;45734;53.648;9.566;2024-03-22T09:05:53;52001.34;;;-145.06;100.00
59859;BME280;45734;53.648;9.566;2024-03-22T09:10:53;52023.59;;;-145.06;100.00
59859;BME280;45734;53.648;9.566;2024-03-22T09:15:58;51985.16;;;-145.06;100.00
59859;BME280;45734;53.648;9.566;2024-03-22T09:20:58;52009.44;;;-145.06;100.00
59859;BME280;45734;53.648;9.566;2024-03-22T09:25:58;52009.44;;;-145.06;100.00
59859;BME280;45734;53.648;9.566;2024-03-22T09:31:04;52013.50;;;-145.06;100.00
59859;BME280;45734;53.648;9.566;2024-03-22T09:36:04;52001.34;;;-145.06;100.00
59859;BME280;45734;53.648;9.566;2024-03-22T09:41:05;52045.88;;;-145.06;100.00
59859;BME280;45734;53.648;9.566;2024-03-22T09:46:06;51997.28;;;-145.06;100.00
59859;BME280;45734;53.648;9.566;2024-03-22T09:51:07;52009.44;;;-145.06;100.00
59859;BME280;45734;53.648;9.566;2024-03-22T09:56:08;51952.75;;;-145.06;100.00
59859;BME280;45734;53.648;9.566;2024-03-22T10:01:09;51956.81;;;-145.06;100.00
59859;BME280;45734;53.648;9.566;2024-03-22T10:06:09;51948.72;;;-145.06;100.00
59859;BME280;45734;53.648;9.566;2024-03-22T10:11:10;51946.69;;;-145.06;100.00
59859;BME280;45734;53.648;9.566;2024-03-22T10:16:10;51940.63;;;-145.06;100.00
59859;BME280;45734;53.648;9.566;2024-03-22T10:21:11;51956.81;;;-145.06;100.00
59859;BME280;45734;53.648;9.566;2024-03-22T10:26:11;51940.63;;;-145.06;100.00
59859;BME280;45734;53.648;9.566;2024-03-22T10:31:12;51900.13;;;-145.06;100.00
59859;BME280;45734;53.648;9.566;2024-03-22T10:36:12;51936.56;;;-145.06;100.00
59859;BME280;45734;53.648;9.566;2024-03-22T10:41:13;51962.88;;;-145.06;100.00
59859;BME280;45734;53.648;9.566;2024-03-22T10:46:14;51952.75;;;-145.06;100.00
59859;BME280;45734;53.648;9.566;2024-03-22T10:51:15;51948.72;;;-145.06;100.00
59859;BME280;45734;53.648;9.566;2024-03-22T10:56:16;51936.56;;;-145.06;100.00
59859;BME280;45734;53.648;9.566;2024-03-22T11:01:25;51906.22;;;-145.06;100.00
59859;BME280;45734;53.648;9.566;2024-03-22T11:06:26;51881.91;;;-145.06;100.00
59859;BME280;45734;53.648;9.566;2024-03-22T11:11:28;51930.50;;;-145.06;100.00
59859;BME280;45734;53.648;9.566;2024-03-22T11:16:30;51954.78;;;-145.06;100.00
59859;BME280;45734;53.648;9.566;2024-03-22T11:21:33;51928.47;;;-145.06;100.00
59859;BME280;45734;53.648;9.566;2024-03-22T11:26:34;51879.88;;;-145.06;100.00
59859;BME280;45734;53.648;9.566;2024-03-22T11:31:34;51906.22;;;-145.06;100.00
59859;BME280;45734;53.648;9.566;2024-03-22T11:36:35;51948.72;;;-145.06;100.00
59859;BME280;45734;53.648;9.566;2024-03-22T11:41:35;51954.78;;;-145.06;100.00
59859;BME280;45734;53.648;9.566;2024-03-22T11:46:36;51964.91;;;-145.06;100.00
59859;BME280;45734;53.648;9.566;2024-03-22T11:51:38;51962.88;;;-145.06;100.00
59859;BME280;45734;53.648;9.566;2024-03-22T11:56:39;51985.16;;;-145.06;100.00
59859;BME280;45734;53.648;9.566;2024-03-22T12:01:43;51960.84;;;-145.06;100.00
59859;BME280;45734;53.648;9.566;2024-03-22T12:06:46;51944.66;;;-145.06;100.00
59859;BME280;45734;53.648;9.566;2024-03-22T12:11:46;51930.50;;;-145.06;100.00
59859;BME280;45734;53.648;9.566;2024-03-22T12:16:47;51964.91;;;-145.06;100.00
59859;BME280;45734;53.648;9.566;2024-03-22T12:21:47;51997.28;;;-145.06;100.00
59859;BME280;45734;53.648;9.566;2024-03-22T12:26:47;51979.06;;;-145.06;100.00
59859;BME280;45734;53.648;9.566;2024-03-22T12:31:48;51985.16;;;-145.06;100.00
59859;BME280;45734;53.648;9.566;2024-03-22T12:36:48;51924.41;;;-145.06;100.00
59859;BME280;45734;53.648;9.566;2024-03-22T12:41:49;51892.03;;;-145.06;100.00
59859;BME280;45734;53.648;9.566;2024-03-22T12:46:49;51908.22;;;-145.06;100.00
59859;BME280;45734;53.648;9.566;2024-03-22T12:51:51;51930.50;;;-145.06;100.00
59859;BME280;45734;53.648;9.566;2024-03-22T12:56:51;51932.53;;;-145.06;100.00
59859;BME280;45734;53.648;9.566;2024-03-22T13:01:52;51924.41;;;-145.06;100.00
59859;BME280;45734;53.648;9.566;2024-03-22T13:06:53;51952.75;;;-145.06;100.00
59859;BME280;45734;53.648;9.566;2024-03-22T13:11:54;51989.19;;;-145.06;100.00
59859;BME280;45734;53.648;9.566;2024-03-22T13:16:54;51989.19;;;-145.06;100.00
59859;BME280;45734;53.648;9.566;2024-03-22T13:21:54;51981.09;;;-145.06;100.00
59859;BME280;45734;53.648;9.566;2024-03-22T13:26:54;51991.22;;;-145.06;100.00
59859;BME280;45734;53.648;9.566;2024-03-22T13:31:55;51962.88;;;-145.06;100.00
59859;BME280;45734;53.648;9.566;2024-03-22T13:36:55;51928.47;;;-145.06;100.00
59859;BME280;45734;53.648;9.566;2024-03-22T13:41:56;51932.53;;;-145.06;100.00
59859;BME280;45734;53.648;9.566;2024-03-22T13:46:56;51958.84;;;-145.06;100.00
59859;BME280;45734;53.648;9.566;2024-03-22T13:51:58;52029.69;;;-145.06;100.00
59859;BME280;45734;53.648;9.566;2024-03-22T13:56:59;52001.34;;;-145.06;100.00
59859;BME280;45734;53.648;9.566;2024-03-22T14:02:00;52053.97;;;-145.06;100.00
59859;BME280;45734;53.648;9.566;2024-03-22T14:07:01;52047.91;;;-145.06;100.00
59859;BME280;45734;53.648;9.566;2024-03-22T14:12:05;52078.25;;;-145.06;100.00
59859;BME280;45734;53.648;9.566;2024-03-22T14:17:05;52102.56;;;-145.06;100.00
59859;BME280;45734;53.648;9.566;2024-03-22T14:22:06;52173.41;;;-145.06;100.00
59859;BME280;45734;53.648;9.566;2024-03-22T14:27:06;52143.03;;;-145.06;100.00
59859;BME280;45734;53.648;9.566;2024-03-22T14:32:06;52191.63;;;-145.06;100.00
59859;BME280;45734;53.648;9.566;2024-03-22T14:37:07;52189.59;;;-145.06;100.00
59859;BME280;45734;53.648;9.566;2024-03-22T14:42:08;52278.66;;;-145.06;100.00
59859;BME280;45734;53.648;9.566;2024-03-22T14:47:08;52278.66;;;-145.06;100.00
59859;BME280;45734;53.648;9.566;2024-03-22T14:52:08;52288.78;;;-145.06;100.00
59859;BME280;45734;53.648;9.566;2024-03-22T14:57:09;52262.47;;;-145.06;100.00
59859;BME280;45734;53.648;9.566;2024-03-22T15:02:09;52309.03;;;-145.06;100.00
59859;BME280;45734;53.648;9.566;2024-03-22T15:07:10;52302.97;;;-145.06;100.00
59859;BME280;45734;53.648;9.566;2024-03-22T15:12:10;52278.66;;;-145.06;100.00
59859;BME280;45734;53.648;9.566;2024-03-22T15:17:11;52323.19;;;-145.06;100.00
59859;BME280;45734;53.648;9.566;2024-03-22T15:22:12;52321.19;;;-145.06;100.00
59859;BME280;45734;53.648;9.566;2024-03-22T15:27:12;52357.63;;;-145.06;100.00
59859;BME280;45734;53.648;9.566;2024-03-22T15:32:12;52317.13;;;-145.06;100.00
59859;BME280;45734;53.648;9.566;2024-03-22T15:37:13;52345.47;;;-145.06;100.00
59859;BME280;45734;53.648;9.566;2024-03-22T15:42:13;52361.66;;;-145.06;100.00
59859;BME280;45734;53.648;9.566;2024-03-22T15:47:13;52422.41;;;-145.06;100.00
59859;BME280;45734;53.648;9.566;2024-03-22T15:52:13;52462.88;;;-145.06;100.00
59859;BME280;45734;53.648;9.566;2024-03-22T15:57:15;52464.91;;;-145.06;100.00
59859;BME280;45734;53.648;9.566;2024-03-22T16:02:15;52483.13;;;-145.06;100.00
59859;BME280;45734;53.648;9.566;2024-03-22T16:07:16;52470.97;;;-145.06;100.00
59859;BME280;45734;53.648;9.566;2024-03-22T16:12:16;52479.06;;;-145.06;100.00
59859;BME280;45734;53.648;9.566;2024-03-22T16:17:17;52515.53;;;-145.06;100.00
59859;BME280;45734;53.648;9.566;2024-03-22T16:22:17;52507.41;;;-145.06;100.00
59859;BME280;45734;53.648;9.566;2024-03-22T16:27:20;52545.88;;;-145.06;100.00
59859;BME280;45734;53.648;9.566;2024-03-22T16:32:21;52503.38;;;-145.06;100.00
59859;BME280;45734;53.648;9.566;2024-03-22T16:37:21;52491.22;;;-145.06;100.00
59859;BME280;45734;53.648;9.566;2024-03-22T16:42:22;52517.53;;;-145.06;100.00
59859;BME280;45734;53.648;9.566;2024-03-22T16:47:22;52533.75;;;-145.06;100.00
59859;BME280;45734;53.648;9.566;2024-03-22T16:52:22;52519.56;;;-145.06;100.00
59859;BME280;45734;53.648;9.566;2024-03-22T16:57:22;52551.97;;;-145.06;100.00
59859;BME280;45734;53.648;9.566;2024-03-22T17:02:23;52576.25;;;-145.06;100.00
59859;BME280;45734;53.648;9.566;2024-03-22T17:07:23;52568.16;;;-145.06;100.00
59859;BME280;45734;53.648;9.566;2024-03-22T17:12:24;52535.75;;;-145.06;100.00
59859;BME280;45734;53.648;9.566;2024-03-22T17:17:24;52539.81;;;-145.06;100.00
59859;BME280;45734;53.648;9.566;2024-03-22T17:22:24;52531.72;;;-145.06;100.00
59859;BME280;45734;53.648;9.566;2024-03-22T17:27:25;52535.75;;;-145.06;100.00
59859;BME280;45734;53.648;9.566;2024-03-22T17:32:25;52572.19;;;-145.06;100.00
59859;BME280;45734;53.648;9.566;2024-03-22T17:37:25;52539.81;;;-145.06;100.00
59859;BME280;45734;53.648;9.566;2024-03-22T17:42:26;52551.97;;;-145.06;100.00
59859;BME280;45734;53.648;9.566;2024-03-22T17:47:26;52560.06;;;-145.06;100.00
59859;BME280;45734;53.648;9.566;2024-03-22T17:52:26;52513.50;;;-145.06;100.00
59859;BME280;45734;53.648;9.566;2024-03-22T17:57:26;52497.28;;;-145.06;100.00
59859;BME280;45734;53.648;9.566;2024-03-22T18:02:28;52513.50;;;-145.06;100.00
59859;BME280;45734;53.648;9.566;2024-03-22T18:07:28;52545.88;;;-145.06;100.00
59859;BME280;45734;53.648;9.566;2024-03-22T18:12:28;52584.34;;;-145.06;100.00
59859;BME280;45734;53.648;9.566;2024-03-22T18:17:29;52612.69;;;-145.06;100.00
59859;BME280;45734;53.648;9.566;2024-03-22T18:22:29;52596.50;;;-145.06;100.00
59859;BME280;45734;53.648;9.566;2024-03-22T18:27:30;52570.19;;;-145.06;100.00
59859;BME280;45734;53.648;9.566;2024-03-22T18:32:30;52604.59;;;-145.06;100.00
59859;BME280;45734;53.648;9.566;2024-03-22T18:37:31;52610.66;;;-145.06;100.00
59859;BME280;45734;53.648;9.566;2024-03-22T18:42:31;52580.31;;;-145.06;100.00
59859;BME280;45734;53.648;9.566;2024-03-22T18:47:32;52602.56;;;-145.06;100.00
59859;BME280;45734;53.648;9.566;2024-03-22T18:52:32;52578.28;;;-145.06;100.00
59859;BME280;45734;53.648;9.566;2024-03-22T18:57:32;52606.63;;;-145.06;100.00
59859;BME280;45734;53.648;9.566;2024-03-22T19:02:33;52608.66;;;-145.06;100.00
59859;BME280;45734;53.648;9.566;2024-03-22T19:07:33;52653.19;;;-145.06;100.00
59859;BME280;45734;53.648;9.566;2024-03-22T19:12:33;52645.09;;;-145.06;100.00
59859;BME280;45734;53.648;9.566;2024-03-22T19:17:33;52647.13;;;-145.06;100.00
59859;BME280;45734;53.648;9.566;2024-03-22T19:22:34;52683.56;;;-145.06;100.00
59859;BME280;45734;53.648;9.566;2024-03-22T19:27:34;52683.56;;;-145.06;100.00
59859;BME280;45734;53.648;9.566;2024-03-22T19:32:35;52663.31;;;-145.06;100.00
59859;BME280;45734;53.648;9.566;2024-03-22T19:37:35;52675.44;;;-145.06;100.00
59859;BME280;45734;53.648;9.566;2024-03-22T19:42:35;52679.50;;;-145.06;100.00
59859;BME280;45734;53.648;9.566;2024-03-22T19:47:35;52713.91;;;-145.06;100.00
59859;BME280;45734;53.648;9.566;2024-03-22T19:52:36;52691.66;;;-145.06;100.00
59859;BME280;45734;53.648;9.566;2024-03-22T19:57:37;52681.53;;;-145.06;100.00
59859;BME280;45734;53.648;9.566;2024-03-22T20:02:37;52693.69;;;-145.06;100.00
59859;BME280;45734;53.648;9.566;2024-03-22T20:07:37;52693.69;;;-145.06;100.00
59859;BME280;45734;53.648;9.566;2024-03-22T20:12:38;52691.66;;;-145.06;100.00
59859;BME280;45734;53.648;9.566;2024-03-22T20:17:38;52683.56;;;-145.06;100.00
59859;BME280;45734;53.648;9.566;2024-03-22T20:22:38;52715.94;;;-145.06;100.00
59859;BME280;45734;53.648;9.566;2024-03-22T20:27:39;52683.56;;;-145.06;100.00
59859;BME280;45734;53.648;9.566;2024-03-22T20:32:39;52709.88;;;-145.06;100.00
59859;BME280;45734;53.648;9.566;2024-03-22T20:37:39;52726.06;;;-145.06;100.00
